Aviation Digital Data Service (ADDS)

Output produced by METARs form (1914 UTC 31 October 2014)
found at http://www.aviationweather.gov/adds/metars/
 
KEWR 311730Z 3118/0124 02008KT P6SM BKN050 OVC150 
     TEMPO 0101/0103 -RA 
     FM010300 02010KT P6SM -RA OVC025 
     FM010700 02015G22KT 5SM -RA BR OVC015 
     FM011500 02018G28KT 3SM RA BR OVC012 
     FM012000 35018G28KT 5SM -RA BR OVC015